createdAt,value
2022-09-23T00:01:02.775Z,76.81
2022-09-23T00:03:33.053Z,75.96
2022-09-23T00:06:05.477Z,76.37
2022-09-23T00:08:35.238Z,76.49
2022-09-23T00:11:07.040Z,76.40
2022-09-23T00:13:39.690Z,77.16
2022-09-23T00:16:15.628Z,76.70
2022-09-23T00:18:45.172Z,75.54
2022-09-23T00:21:15.859Z,75.82
2022-09-23T00:23:44.693Z,75.99
2022-09-23T00:26:19.179Z,77.09
2022-09-23T00:28:48.836Z,76.78
2022-09-23T00:31:21.699Z,77.54
2022-09-23T00:33:54.805Z,77.94
2022-09-23T00:36:27.959Z,77.61
2022-09-23T00:38:57.314Z,78.06
2022-09-23T00:41:29.334Z,76.82
2022-09-23T00:44:00.025Z,76.98
2022-09-23T00:46:36.360Z,77.53
2022-09-23T00:49:12.234Z,78.11
2022-09-23T00:51:52.572Z,78.02
2022-09-23T00:54:27.909Z,78.46
2022-09-23T00:56:56.897Z,78.72
2022-09-23T00:59:26.300Z,78.22
2022-09-23T01:02:00.697Z,78.51
2022-09-23T01:04:31.166Z,78.64
2022-09-23T01:07:00.080Z,78.41
2022-09-23T01:09:29.673Z,79.14
2022-09-23T01:12:06.047Z,78.81
2022-09-23T01:14:45.963Z,79.30
2022-09-23T01:17:28.574Z,77.87
2022-09-23T01:20:20.612Z,78.27
2022-09-23T01:23:05.071Z,79.03
2022-09-23T01:25:49.807Z,79.08
2022-09-23T01:28:33.427Z,78.93
2022-09-23T01:31:08.273Z,79.52
2022-09-23T01:33:46.365Z,78.74
2022-09-23T01:36:23.409Z,78.81
2022-09-23T01:38:59.708Z,78.41
2022-09-23T01:41:47.284Z,78.33
2022-09-23T01:44:23.015Z,78.62
2022-09-23T01:47:00.788Z,78.83
2022-09-23T01:49:39.535Z,78.74
2022-09-23T01:52:16.007Z,79.05
2022-09-23T01:54:52.348Z,80.24
2022-09-23T01:57:31.882Z,80.28
2022-09-23T02:00:07.957Z,79.94
2022-09-23T02:02:50.057Z,79.49
2022-09-23T02:05:25.604Z,79.46
2022-09-23T02:08:00.033Z,79.11
2022-09-23T02:10:36.360Z,79.43
2022-09-23T02:13:10.483Z,79.36
2022-09-23T02:15:46.116Z,79.57
2022-09-23T02:18:20.068Z,80.40
2022-09-23T02:20:54.835Z,79.99
2022-09-23T02:23:29.238Z,79.29
2022-09-23T02:26:07.526Z,78.45
2022-09-23T02:28:48.029Z,79.46
2022-09-23T02:31:28.035Z,80.19
2022-09-23T02:34:04.324Z,78.40
2022-09-23T02:36:41.992Z,78.78
2022-09-23T02:39:15.056Z,79.26
2022-09-23T02:41:53.789Z,79.48
2022-09-23T02:44:24.147Z,79.17
2022-09-23T02:46:57.108Z,79.48
2022-09-23T02:49:29.449Z,79.95
2022-09-23T02:52:04.859Z,79.42
2022-09-23T02:54:35.436Z,79.90
2022-09-23T02:57:08.719Z,79.71
2022-09-23T02:59:40.942Z,79.04
2022-09-23T03:02:26.653Z,79.56
2022-09-23T03:05:06.824Z,78.99
2022-09-23T03:07:49.011Z,79.23
2022-09-23T03:10:27.299Z,79.76
2022-09-23T03:13:12.354Z,79.44
2022-09-23T03:15:53.399Z,80.52
2022-09-23T03:18:31.730Z,81.25
2022-09-23T03:21:08.212Z,81.42
2022-09-23T03:23:41.533Z,81.28
2022-09-23T03:26:16.423Z,79.33
2022-09-23T03:28:47.825Z,80.37
2022-09-23T03:31:18.403Z,80.28
2022-09-23T03:33:51.514Z,80.49
2022-09-23T03:36:45.794Z,80.47
2022-09-23T03:39:24.209Z,79.80
2022-09-23T03:41:57.064Z,80.00
2022-09-23T03:44:29.462Z,79.68
2022-09-23T03:47:00.552Z,81.03
2022-09-23T03:49:35.558Z,80.96
2022-09-23T03:52:07.083Z,80.55
2022-09-23T03:54:36.452Z,81.94
2022-09-23T03:57:07.318Z,81.68
2022-09-23T03:59:37.018Z,80.22
2022-09-23T04:02:07.912Z,81.22
2022-09-23T04:04:39.148Z,81.04
2022-09-23T04:07:12.326Z,81.28
2022-09-23T04:09:41.796Z,80.95
2022-09-23T04:12:14.799Z,81.03
2022-09-23T04:14:44.827Z,80.60
2022-09-23T04:17:15.268Z,81.48
2022-09-23T04:19:46.196Z,81.33
2022-09-23T04:22:17.342Z,82.36
2022-09-23T04:24:47.478Z,82.39
2022-09-23T04:27:16.861Z,83.31
2022-09-23T04:29:46.956Z,82.88
2022-09-23T04:32:17.064Z,81.93
2022-09-23T04:34:46.791Z,82.10
2022-09-23T04:37:17.569Z,82.71
2022-09-23T04:39:46.847Z,81.09
2022-09-23T04:42:17.783Z,81.35
2022-09-23T04:44:47.586Z,81.23
2022-09-23T04:47:19.283Z,81.18
2022-09-23T04:49:48.802Z,81.54
2022-09-23T04:52:20.284Z,82.07
2022-09-23T04:54:50.160Z,81.85
2022-09-23T04:57:19.692Z,81.44
2022-09-23T04:59:49.434Z,81.11
2022-09-23T05:02:21.806Z,82.62
2022-09-23T05:04:50.740Z,83.20
2022-09-23T05:07:21.574Z,82.04
2022-09-23T05:09:50.599Z,81.88
2022-09-23T05:12:22.245Z,81.47
2022-09-23T05:14:52.192Z,81.66
2022-09-23T05:17:22.681Z,81.87
2022-09-23T05:19:52.240Z,81.42
2022-09-23T05:22:23.035Z,81.48
2022-09-23T05:24:52.079Z,82.26
2022-09-23T05:27:23.967Z,82.06
2022-09-23T05:29:53.442Z,82.10
2022-09-23T05:32:22.934Z,82.58
2022-09-23T05:34:55.806Z,82.47
2022-09-23T05:37:26.715Z,82.86
2022-09-23T05:39:59.120Z,82.62
2022-09-23T05:42:28.859Z,82.25
2022-09-23T05:44:58.307Z,83.03
2022-09-23T05:47:27.502Z,84.26
2022-09-23T05:50:00.002Z,84.11
2022-09-23T05:52:31.583Z,84.44
2022-09-23T05:55:02.100Z,84.10
2022-09-23T05:57:30.823Z,84.40
2022-09-23T06:00:00.251Z,84.57
2022-09-23T06:02:29.579Z,84.72
2022-09-23T06:04:58.921Z,84.76
2022-09-23T06:07:27.883Z,84.55
2022-09-23T06:09:58.831Z,84.42
2022-09-23T06:12:28.307Z,84.84
2022-09-23T06:14:57.821Z,83.97
2022-09-23T06:17:28.930Z,84.55
2022-09-23T06:20:00.788Z,84.72
2022-09-23T06:22:30.118Z,84.64
2022-09-23T06:25:02.162Z,85.14
2022-09-23T06:27:34.835Z,85.18
2022-09-23T06:30:04.361Z,84.89
2022-09-23T06:32:34.769Z,85.07
2022-09-23T06:35:15.801Z,84.09
2022-09-23T06:37:52.227Z,84.65
2022-09-23T06:40:24.340Z,84.87
2022-09-23T06:42:58.767Z,84.53
2022-09-23T06:45:28.182Z,84.62
2022-09-23T06:47:58.453Z,85.02
2022-09-23T06:50:29.169Z,85.65
2022-09-23T06:52:58.694Z,85.66
2022-09-23T06:55:29.303Z,85.52
2022-09-23T06:57:59.908Z,84.69
2022-09-23T07:00:29.627Z,84.90
2022-09-23T07:02:59.715Z,84.77
2022-09-23T07:05:29.522Z,85.13
2022-09-23T07:07:59.803Z,85.03
2022-09-23T07:10:32.642Z,84.17
2022-09-23T07:13:03.425Z,84.07
2022-09-23T07:15:34.021Z,84.59
2022-09-23T07:18:03.757Z,83.89
2022-09-23T07:20:33.478Z,83.59
2022-09-23T07:23:02.761Z,83.65
2022-09-23T07:25:34.280Z,83.03
2022-09-23T07:28:03.374Z,82.91
2022-09-23T07:30:33.421Z,82.67
2022-09-23T07:33:20.334Z,82.95
2022-09-23T07:35:54.282Z,82.61
2022-09-23T07:38:26.125Z,82.51
2022-09-23T07:41:02.108Z,82.32
2022-09-23T07:43:32.242Z,81.88
2022-09-23T07:46:03.747Z,82.18
2022-09-23T07:48:34.631Z,82.44
2022-09-23T07:51:08.861Z,82.42
2022-09-23T07:53:38.663Z,82.15
2022-09-23T07:56:10.144Z,82.68
2022-09-23T07:58:41.625Z,81.84
2022-09-23T08:01:12.597Z,81.46
2022-09-23T08:03:44.215Z,81.79
2022-09-23T08:06:17.470Z,81.33
2022-09-23T08:08:50.009Z,81.29
2022-09-23T08:11:24.099Z,80.41
2022-09-23T08:13:53.180Z,79.74
2022-09-23T08:16:22.231Z,79.86
2022-09-23T08:18:51.341Z,79.70
2022-09-23T08:21:22.021Z,77.76
2022-09-23T08:23:54.739Z,78.33
2022-09-23T08:26:25.351Z,78.64
2022-09-23T08:28:54.761Z,78.25
2022-09-23T08:31:26.436Z,77.89
2022-09-23T08:33:57.372Z,77.46
2022-09-23T08:36:29.423Z,77.53
2022-09-23T08:38:59.196Z,77.31
2022-09-23T08:41:38.650Z,78.27
2022-09-23T08:44:15.089Z,78.10
2022-09-23T08:46:49.360Z,78.12
2022-09-23T08:49:28.862Z,78.60
2022-09-23T08:52:08.273Z,76.66
2022-09-23T08:54:40.278Z,76.74
2022-09-23T08:57:21.290Z,76.53
2022-09-23T08:59:50.669Z,76.86
2022-09-23T09:02:22.069Z,76.22
2022-09-23T09:04:56.778Z,76.62
2022-09-23T09:07:36.759Z,76.55
2022-09-23T09:10:12.805Z,76.06
2022-09-23T09:12:45.996Z,76.29
2022-09-23T09:15:16.330Z,75.32
2022-09-23T09:17:59.488Z,74.40
2022-09-23T09:20:40.209Z,74.05
2022-09-23T09:23:22.590Z,74.20
2022-09-23T09:25:55.759Z,74.55
2022-09-23T09:28:32.290Z,74.69
2022-09-23T09:31:03.882Z,74.23
2022-09-23T09:33:41.637Z,73.04
2022-09-23T09:36:20.614Z,74.08
2022-09-23T09:38:51.112Z,74.47
2022-09-23T09:41:21.701Z,75.07
2022-09-23T09:43:57.795Z,74.15
2022-09-23T09:46:46.064Z,74.54
2022-09-23T09:49:24.299Z,74.47
2022-09-23T09:52:13.604Z,74.42
2022-09-23T09:54:43.513Z,74.37
2022-09-23T09:57:33.681Z,74.72
2022-09-23T10:00:35.858Z,73.63
2022-09-23T10:03:26.775Z,74.00
2022-09-23T10:05:57.695Z,73.31
2022-09-23T10:08:31.229Z,74.28
2022-09-23T10:11:05.456Z,73.93
2022-09-23T10:13:35.168Z,74.04
2022-09-23T10:16:07.912Z,74.31
2022-09-23T10:18:39.413Z,73.95
2022-09-23T10:21:12.206Z,73.76
2022-09-23T10:23:43.844Z,72.89
2022-09-23T10:26:17.528Z,73.06
2022-09-23T10:28:50.335Z,73.33
2022-09-23T10:31:25.855Z,71.82
2022-09-23T10:33:57.391Z,71.47
2022-09-23T10:36:29.657Z,71.44
2022-09-23T10:39:17.517Z,70.79
2022-09-23T10:42:14.389Z,70.93
2022-09-23T10:45:16.799Z,71.01
2022-09-23T10:47:58.173Z,71.08
2022-09-23T10:50:39.085Z,70.52
2022-09-23T10:53:19.686Z,70.75
2022-09-23T10:55:59.577Z,70.54
2022-09-23T10:59:02.092Z,70.00
2022-09-23T11:01:40.463Z,69.87
2022-09-23T11:04:41.009Z,69.61
2022-09-23T11:07:19.278Z,69.54
2022-09-23T11:10:23.180Z,69.02
2022-09-23T11:13:09.792Z,68.37
2022-09-23T11:15:51.790Z,68.89
2022-09-23T11:18:45.362Z,68.62
2022-09-23T11:21:38.205Z,67.66
2022-09-23T11:24:28.126Z,68.33
2022-09-23T11:27:08.979Z,69.09
2022-09-23T11:29:59.431Z,68.75
2022-09-23T11:32:45.665Z,66.95
2022-09-23T11:35:20.586Z,65.95
2022-09-23T11:37:56.947Z,66.07
2022-09-23T11:40:32.070Z,65.29
2022-09-23T11:43:08.453Z,66.16
2022-09-23T11:45:46.316Z,66.87
2022-09-23T11:48:18.171Z,66.87
2022-09-23T11:50:55.499Z,66.77
2022-09-23T11:53:36.145Z,66.95
2022-09-23T11:56:16.547Z,66.40
2022-09-23T11:59:03.421Z,65.92
2022-09-23T12:01:37.944Z,66.54
2022-09-23T12:04:19.986Z,66.48
2022-09-23T12:06:54.116Z,66.46
2022-09-23T12:09:53.903Z,67.22
2022-09-23T12:12:27.374Z,66.79
2022-09-23T12:15:02.946Z,65.93
2022-09-23T12:17:51.522Z,66.06
2022-09-23T12:20:51.417Z,65.63
2022-09-23T12:23:35.845Z,65.70
2022-09-23T12:26:09.395Z,65.93
2022-09-23T12:28:41.966Z,65.58
2022-09-23T12:31:12.897Z,65.92
2022-09-23T12:33:42.762Z,65.75
2022-09-23T12:36:13.303Z,65.76
2022-09-23T12:38:49.637Z,66.12
2022-09-23T12:41:28.784Z,66.27
2022-09-23T12:44:02.744Z,65.70
2022-09-23T12:46:31.806Z,66.50
2022-09-23T12:49:03.911Z,66.20
2022-09-23T12:51:34.861Z,65.43
2022-09-23T12:54:26.201Z,65.25
2022-09-23T12:57:10.584Z,65.46
2022-09-23T12:59:57.563Z,66.08
2022-09-23T13:02:34.702Z,66.81
2022-09-23T13:05:39.525Z,66.52
2022-09-23T13:08:13.394Z,67.14
2022-09-23T13:10:50.006Z,67.16
2022-09-23T13:13:27.651Z,67.27
2022-09-23T13:15:56.704Z,66.75
2022-09-23T13:18:41.218Z,65.96
2022-09-23T13:21:19.364Z,65.63
2022-09-23T13:24:19.487Z,66.69
2022-09-23T13:26:50.977Z,66.30
2022-09-23T13:29:28.275Z,66.21
2022-09-23T13:31:58.449Z,66.71
2022-09-23T13:34:33.377Z,66.76
2022-09-23T13:37:21.580Z,66.51
2022-09-23T13:39:51.098Z,66.94
2022-09-23T13:42:27.733Z,67.64
2022-09-23T13:45:00.432Z,67.39
2022-09-23T13:47:32.097Z,68.05
2022-09-23T13:50:02.091Z,68.24
2022-09-23T13:52:34.600Z,68.81
2022-09-23T13:55:03.298Z,69.18
2022-09-23T13:57:34.950Z,69.78
2022-09-23T14:00:18.714Z,69.75
2022-09-23T14:02:47.908Z,69.13
2022-09-23T14:05:23.741Z,69.25
2022-09-23T14:07:53.732Z,69.21
2022-09-23T14:10:24.683Z,69.04
2022-09-23T14:12:55.248Z,69.31
2022-09-23T14:15:25.490Z,70.22
2022-09-23T14:18:07.370Z,69.81
2022-09-23T14:20:46.943Z,70.25
2022-09-23T14:23:18.850Z,70.06
2022-09-23T14:25:48.616Z,71.20
2022-09-23T14:28:19.568Z,71.82
2022-09-23T14:30:53.959Z,72.00
2022-09-23T14:33:28.751Z,72.02
2022-09-23T14:36:04.040Z,72.18
2022-09-23T14:38:53.907Z,72.51
2022-09-23T14:41:25.430Z,73.00
2022-09-23T14:43:58.406Z,73.46
2022-09-23T14:46:29.208Z,73.77
2022-09-23T14:49:08.458Z,74.54
2022-09-23T14:51:47.723Z,74.23
2022-09-23T14:54:37.292Z,74.78
2022-09-23T14:57:25.380Z,74.99
2022-09-23T14:59:56.065Z,75.19
2022-09-23T15:02:35.689Z,75.28
2022-09-23T15:05:16.939Z,75.53
2022-09-23T15:07:49.884Z,76.17
2022-09-23T15:10:23.604Z,76.32
2022-09-23T15:12:54.394Z,76.34
2022-09-23T15:15:28.101Z,77.08
2022-09-23T15:18:05.622Z,77.27
2022-09-23T15:20:36.496Z,77.46
2022-09-23T15:23:32.496Z,77.65
2022-09-23T15:26:06.948Z,78.30
2022-09-23T15:28:36.437Z,78.28
2022-09-23T15:31:11.959Z,78.68
2022-09-23T15:33:45.185Z,78.85
2022-09-23T15:36:18.561Z,78.84
2022-09-23T15:38:48.662Z,79.00
2022-09-23T15:41:17.898Z,79.34
2022-09-23T15:43:47.195Z,79.81
2022-09-23T15:46:22.464Z,80.08
2022-09-23T15:48:58.859Z,80.49
2022-09-23T15:51:28.593Z,80.94
2022-09-23T15:53:57.869Z,81.20
2022-09-23T15:56:27.113Z,81.61
2022-09-23T15:58:56.119Z,81.53
2022-09-23T16:01:29.586Z,81.71
2022-09-23T16:04:04.089Z,82.24
2022-09-23T16:06:36.334Z,82.63
2022-09-23T16:09:07.135Z,82.56
2022-09-23T16:11:38.331Z,83.07
2022-09-23T16:14:11.440Z,82.80
2022-09-23T16:16:42.556Z,83.30
2022-09-23T16:19:13.896Z,83.96
2022-09-23T16:21:44.766Z,84.05
2022-09-23T16:24:18.089Z,85.21
2022-09-23T16:26:49.201Z,85.22
2022-09-23T16:29:19.419Z,85.46
2022-09-23T16:31:48.918Z,86.92
2022-09-23T16:34:21.231Z,87.29
2022-09-23T16:36:51.302Z,88.17
2022-09-23T16:39:23.030Z,88.61
2022-09-23T16:41:52.817Z,88.56
2022-09-23T16:44:22.917Z,89.17
2022-09-23T16:46:54.222Z,89.58
2022-09-23T16:49:27.513Z,89.82
2022-09-23T16:51:57.617Z,90.24
2022-09-23T16:54:27.649Z,90.40
2022-09-23T16:57:01.122Z,90.71
2022-09-23T16:59:51.714Z,90.83
2022-09-23T17:02:38.614Z,90.84
2022-09-23T17:05:11.087Z,90.98
2022-09-23T17:07:40.137Z,91.43
2022-09-23T17:10:11.926Z,91.48
2022-09-23T17:12:41.641Z,91.18
2022-09-23T17:15:12.670Z,91.37
2022-09-23T17:17:42.464Z,91.12
2022-09-23T17:20:14.470Z,91.23
2022-09-23T17:22:44.570Z,91.27
2022-09-23T17:25:17.004Z,90.76
2022-09-23T17:27:49.027Z,90.26
2022-09-23T17:30:18.083Z,90.83
2022-09-23T17:32:47.311Z,91.38
2022-09-23T17:35:17.597Z,91.53
2022-09-23T17:37:47.633Z,91.74
2022-09-23T17:40:16.803Z,91.59
2022-09-23T17:42:45.639Z,91.69
2022-09-23T17:45:14.771Z,91.20
2022-09-23T17:47:43.617Z,91.31
2022-09-23T17:50:19.878Z,91.47
2022-09-23T17:52:48.667Z,91.40
2022-09-23T17:55:18.144Z,91.35
2022-09-23T17:57:51.598Z,91.20
2022-09-23T18:00:20.691Z,90.80
2022-09-23T18:02:52.494Z,90.59
2022-09-23T18:05:23.610Z,91.70
2022-09-23T18:07:52.452Z,90.52
2022-09-23T18:10:26.812Z,91.26
2022-09-23T18:12:55.962Z,91.93
2022-09-23T18:15:24.784Z,92.60
2022-09-23T18:17:53.665Z,92.41
2022-09-23T18:20:24.229Z,92.80
2022-09-23T18:22:53.040Z,93.22
2022-09-23T18:25:38.054Z,93.04
2022-09-23T18:28:07.495Z,94.14
2022-09-23T18:30:36.319Z,94.22
2022-09-23T18:33:08.004Z,94.08
2022-09-23T18:35:39.797Z,94.56
2022-09-23T18:38:10.410Z,94.95
2022-09-23T18:40:41.508Z,93.21
2022-09-23T18:43:11.752Z,92.79
2022-09-23T18:45:43.249Z,93.37
2022-09-23T18:48:31.047Z,93.33
2022-09-23T18:51:04.030Z,93.18
2022-09-23T18:53:36.655Z,93.64
2022-09-23T18:56:08.606Z,93.78
2022-09-23T18:58:39.183Z,93.27
2022-09-23T19:01:10.973Z,94.39
2022-09-23T19:03:40.339Z,95.43
2022-09-23T19:06:13.441Z,95.61
2022-09-23T19:08:43.359Z,94.68
2022-09-23T19:11:15.752Z,93.94
2022-09-23T19:13:45.341Z,92.84
2022-09-23T19:16:16.830Z,90.76
2022-09-23T19:18:46.870Z,92.11
2022-09-23T19:21:20.343Z,90.89
2022-09-23T19:23:51.293Z,91.98
2022-09-23T19:26:27.182Z,90.92
2022-09-23T19:28:57.065Z,91.01
2022-09-23T19:31:27.230Z,91.92
2022-09-23T19:33:57.486Z,90.38
2022-09-23T19:36:29.292Z,88.77
2022-09-23T19:38:59.677Z,89.15
2022-09-23T19:41:33.393Z,89.90
2022-09-23T19:44:07.143Z,90.00
2022-09-23T19:46:38.899Z,90.75
2022-09-23T19:49:08.686Z,91.02
2022-09-23T19:51:41.542Z,91.41
2022-09-23T19:54:10.422Z,92.58
2022-09-23T19:56:39.688Z,93.18
2022-09-23T19:59:09.466Z,92.58
2022-09-23T20:01:38.525Z,92.40
2022-09-23T20:04:09.951Z,92.12
2022-09-23T20:06:39.514Z,92.72
2022-09-23T20:09:09.990Z,92.90
2022-09-23T20:11:38.866Z,92.84
2022-09-23T20:14:07.924Z,93.15
2022-09-23T20:16:37.869Z,92.87
2022-09-23T20:19:07.108Z,92.78
2022-09-23T20:21:36.465Z,92.86
2022-09-23T20:24:06.981Z,93.18
2022-09-23T20:26:54.442Z,93.26
2022-09-23T20:29:23.151Z,91.81
2022-09-23T20:31:51.843Z,92.35
2022-09-23T20:34:21.248Z,92.42
2022-09-23T20:36:49.940Z,92.13
2022-09-23T20:39:19.574Z,92.22
2022-09-23T20:41:50.504Z,92.39
2022-09-23T20:44:21.433Z,91.86
2022-09-23T20:46:51.417Z,91.83
2022-09-23T20:49:20.864Z,92.74
2022-09-23T20:51:49.907Z,93.19
2022-09-23T20:54:21.188Z,92.97
2022-09-23T20:56:51.356Z,92.77
2022-09-23T20:59:20.318Z,92.29
2022-09-23T21:01:53.550Z,92.77
2022-09-23T21:04:24.965Z,93.02
2022-09-23T21:06:53.794Z,93.96
2022-09-23T21:09:22.559Z,94.96
2022-09-23T21:11:52.882Z,95.38
2022-09-23T21:14:24.318Z,94.06
2022-09-23T21:16:54.706Z,94.08
2022-09-23T21:19:24.426Z,93.19
2022-09-23T21:21:56.949Z,93.93
2022-09-23T21:27:22.880Z,95.50
2022-09-23T21:29:51.605Z,95.35
2022-09-23T21:32:21.397Z,95.71
2022-09-23T21:34:50.383Z,96.11
2022-09-23T21:37:19.058Z,95.98
2022-09-23T21:40:07.816Z,96.33
2022-09-23T21:42:38.115Z,96.69
2022-09-23T21:45:09.575Z,96.06
2022-09-23T21:47:38.551Z,95.89
2022-09-23T21:50:08.819Z,97.00
2022-09-23T21:52:38.112Z,95.53
2022-09-23T21:55:07.753Z,95.47
2022-09-23T21:57:38.517Z,96.06
2022-09-23T22:00:11.044Z,96.08
2022-09-23T22:02:41.437Z,96.69
2022-09-23T22:05:11.757Z,96.99
2022-09-23T22:07:41.868Z,98.03
2022-09-23T22:10:11.812Z,97.56
2022-09-23T22:12:43.106Z,96.44
2022-09-23T22:15:13.091Z,97.21
2022-09-23T22:17:42.897Z,97.59
2022-09-23T22:20:15.826Z,97.44
2022-09-23T22:22:46.111Z,97.82
2022-09-23T22:25:15.892Z,97.60
2022-09-23T22:28:01.448Z,98.35
2022-09-23T22:30:48.750Z,98.06
2022-09-23T22:33:19.491Z,98.72
2022-09-23T22:35:49.211Z,99.86
2022-09-23T22:38:19.276Z,99.93
2022-09-23T22:40:50.164Z,100.00
2022-09-23T22:43:20.602Z,99.72
2022-09-23T22:45:51.677Z,99.04
2022-09-23T22:48:21.129Z,98.54
2022-09-23T22:50:52.849Z,97.54
2022-09-23T22:53:24.486Z,97.88
2022-09-23T22:55:59.224Z,99.73
2022-09-23T22:58:32.483Z,100.00
2022-09-23T23:01:02.570Z,100.00
2022-09-23T23:03:33.137Z,99.88
2022-09-23T23:06:03.335Z,99.90
2022-09-23T23:08:32.864Z,99.82
2022-09-23T23:11:05.564Z,100.00
2022-09-23T23:13:35.965Z,98.64
2022-09-23T23:16:12.511Z,99.59
2022-09-23T23:18:43.407Z,98.57
2022-09-23T23:21:14.440Z,98.42
2022-09-23T23:23:45.661Z,98.15
2022-09-23T23:26:17.419Z,98.95
2022-09-23T23:28:48.962Z,98.69
2022-09-23T23:31:19.566Z,99.55
2022-09-23T23:33:48.940Z,100.00
2022-09-23T23:36:20.348Z,100.00
2022-09-23T23:38:51.757Z,100.00
2022-09-23T23:41:22.799Z,100.00
2022-09-23T23:43:57.963Z,100.00
2022-09-23T23:46:28.551Z,98.22
2022-09-23T23:48:58.282Z,98.50
2022-09-23T23:51:28.336Z,98.71
2022-09-23T23:53:58.749Z,99.16
2022-09-23T23:56:28.220Z,99.45
2022-09-23T23:59:00.203Z,99.60
